sensor_id;sensor_type;location;lat;lon;timestamp;pressure;altitude;pressure_sealevel;temperature;humidity
56558;BME280;43358;50.356;12.456;2022-09-29T00:00:43;94083;;;4.9;98.8
56558;BME280;43358;50.356;12.456;2022-09-29T00:03:40;94106;;;4.9;98.8
56558;BME280;43358;50.356;12.456;2022-09-29T00:04:33;94106;;;4.8;98.8
56558;BME280;43358;50.356;12.456;2022-09-29T00:05:35;94105;;;4.8;98.8
56558;BME280;43358;50.356;12.456;2022-09-29T00:06:37;94107;;;4.8;98.8
56558;BME280;43358;50.356;12.456;2022-09-29T00:07:39;94106;;;4.8;98.8
56558;BME280;43358;50.356;12.456;2022-09-29T00:13:26;94115;;;4.8;98.8
56558;BME280;43358;50.356;12.456;2022-09-29T00:13:27;94109;;;4.8;98.8
56558;BME280;43358;50.356;12.456;2022-09-29T00:15:04;94115;;;4.8;98.8
56558;BME280;43358;50.356;12.456;2022-09-29T00:17:51;94120;;;4.8;98.8
56558;BME280;43358;50.356;12.456;2022-09-29T00:22:10;94120;;;4.8;98.8
56558;BME280;43358;50.356;12.456;2022-09-29T00:22:12;94120;;;4.8;98.8
56558;BME280;43358;50.356;12.456;2022-09-29T00:23:14;94120;;;4.8;98.8
56558;BME280;43358;50.356;12.456;2022-09-29T00:25:44;94118;;;4.8;98.8
56558;BME280;43358;50.356;12.456;2022-09-29T00:27:36;94115;;;4.8;98.8
56558;BME280;43358;50.356;12.456;2022-09-29T00:33:28;94120;;;4.9;98.8
56558;BME280;43358;50.356;12.456;2022-09-29T00:36:49;94116;;;5;98.8
56558;BME280;43358;50.356;12.456;2022-09-29T00:38:27;94115;;;5;98.8
56558;BME280;43358;50.356;12.456;2022-09-29T00:39:26;94114;;;5;98.8
56558;BME280;43358;50.356;12.456;2022-09-29T00:40:26;94117;;;5;98.8
56558;BME280;43358;50.356;12.456;2022-09-29T00:41:29;94117;;;5;98.8
56558;BME280;43358;50.356;12.456;2022-09-29T00:46:54;94120;;;4.9;98.8
56558;BME280;43358;50.356;12.456;2022-09-29T00:50:39;94121;;;4.8;98.8
56558;BME280;43358;50.356;12.456;2022-09-29T00:51:46;94119;;;4.8;98.8
56558;BME280;43358;50.356;12.456;2022-09-29T00:55:33;94126;;;4.7;98.8
56558;BME280;43358;50.356;12.456;2022-09-29T00:57:48;94122;;;4.7;98.8
56558;BME280;43358;50.356;12.456;2022-09-29T01:10:29;94120;;;4.8;98.8
56558;BME280;43358;50.356;12.456;2022-09-29T01:11:32;94121;;;4.8;98.8
56558;BME280;43358;50.356;12.456;2022-09-29T01:12:33;94124;;;4.8;98.8
56558;BME280;43358;50.356;12.456;2022-09-29T01:13:35;94125;;;4.8;98.8
56558;BME280;43358;50.356;12.456;2022-09-29T01:17:04;94122;;;4.8;98.8
56558;BME280;43358;50.356;12.456;2022-09-29T01:17:53;94125;;;4.7;98.8
56558;BME280;43358;50.356;12.456;2022-09-29T01:21:22;94123;;;4.8;98.8
56558;BME280;43358;50.356;12.456;2022-09-29T01:24:32;94121;;;4.8;98.8
56558;BME280;43358;50.356;12.456;2022-09-29T01:25:34;94122;;;4.8;98.8
56558;BME280;43358;50.356;12.456;2022-09-29T01:27:39;94121;;;4.8;98.8
56558;BME280;43358;50.356;12.456;2022-09-29T01:27:50;94124;;;4.8;98.8
56558;BME280;43358;50.356;12.456;2022-09-29T01:31:08;94130;;;4.7;98.8
56558;BME280;43358;50.356;12.456;2022-09-29T01:32:12;94126;;;4.7;98.8
56558;BME280;43358;50.356;12.456;2022-09-29T01:37:24;94122;;;4.7;98.8
56558;BME280;43358;50.356;12.456;2022-09-29T01:45:08;94129;;;4.8;98.8
56558;BME280;43358;50.356;12.456;2022-09-29T01:50:03;94127;;;4.8;98.8
56558;BME280;43358;50.356;12.456;2022-09-29T01:55:10;94124;;;5;98.8
56558;BME280;43358;50.356;12.456;2022-09-29T01:57:53;94125;;;4.9;98.8
56558;BME280;43358;50.356;12.456;2022-09-29T02:05:01;94127;;;4.8;98.8
56558;BME280;43358;50.356;12.456;2022-09-29T02:06:01;94130;;;4.8;98.8
56558;BME280;43358;50.356;12.456;2022-09-29T02:10:53;94134;;;4.8;98.8
56558;BME280;43358;50.356;12.456;2022-09-29T02:16:21;94140;;;4.7;98.8
56558;BME280;43358;50.356;12.456;2022-09-29T02:20:30;94142;;;4.7;98.8
56558;BME280;43358;50.356;12.456;2022-09-29T02:23:51;94144;;;4.7;98.8
56558;BME280;43358;50.356;12.456;2022-09-29T02:27:50;94142;;;4.7;98.8
56558;BME280;43358;50.356;12.456;2022-09-29T02:28:05;94140;;;4.7;98.8
56558;BME280;43358;50.356;12.456;2022-09-29T02:30:05;94140;;;4.7;98.8
56558;BME280;43358;50.356;12.456;2022-09-29T02:33:44;94140;;;4.7;98.8
56558;BME280;43358;50.356;12.456;2022-09-29T02:36:17;94140;;;4.7;98.8
56558;BME280;43358;50.356;12.456;2022-09-29T02:36:41;94145;;;4.9;98.8
56558;BME280;43358;50.356;12.456;2022-09-29T02:37:08;94145;;;4.9;98.8
56558;BME280;43358;50.356;12.456;2022-09-29T02:38:00;94143;;;4.9;98.8
56558;BME280;43358;50.356;12.456;2022-09-29T02:39:08;94144;;;4.9;98.8
56558;BME280;43358;50.356;12.456;2022-09-29T02:41:13;94144;;;4.9;98.8
56558;BME280;43358;50.356;12.456;2022-09-29T02:42:17;94144;;;4.9;98.8
56558;BME280;43358;50.356;12.456;2022-09-29T02:43:11;94144;;;4.9;98.8
56558;BME280;43358;50.356;12.456;2022-09-29T02:45:06;94144;;;4.9;98.8
56558;BME280;43358;50.356;12.456;2022-09-29T02:46:18;94144;;;4.9;98.8
56558;BME280;43358;50.356;12.456;2022-09-29T02:46:51;94145;;;4.9;98.8
56558;BME280;43358;50.356;12.456;2022-09-29T02:46:52;94147;;;4.9;98.8
56558;BME280;43358;50.356;12.456;2022-09-29T02:47:30;94147;;;4.9;98.8
56558;BME280;43358;50.356;12.456;2022-09-29T02:47:57;94146;;;5;98.8
56558;BME280;43358;50.356;12.456;2022-09-29T02:51:36;94146;;;4.9;98.8
56558;BME280;43358;50.356;12.456;2022-09-29T02:52:02;94146;;;4.9;98.8
56558;BME280;43358;50.356;12.456;2022-09-29T02:53:30;94146;;;4.9;98.8
56558;BME280;43358;50.356;12.456;2022-09-29T03:00:00;94147;;;4.8;98.8
56558;BME280;43358;50.356;12.456;2022-09-29T03:08:21;94155;;;4.8;98.8
56558;BME280;43358;50.356;12.456;2022-09-29T03:12:47;94148;;;4.8;98.8
56558;BME280;43358;50.356;12.456;2022-09-29T03:15:20;94148;;;4.8;98.8
56558;BME280;43358;50.356;12.456;2022-09-29T03:16:47;94145;;;4.8;98.8
56558;BME280;43358;50.356;12.456;2022-09-29T03:41:26;94149;;;4.9;98.8
56558;BME280;43358;50.356;12.456;2022-09-29T03:41:26;94156;;;4.9;98.8
56558;BME280;43358;50.356;12.456;2022-09-29T03:43:20;94153;;;4.9;98.8
56558;BME280;43358;50.356;12.456;2022-09-29T03:45:37;94157;;;4.8;98.8
56558;BME280;43358;50.356;12.456;2022-09-29T03:57:52;94162;;;4.9;98.8
56558;BME280;43358;50.356;12.456;2022-09-29T04:07:44;94161;;;4.8;98.8
56558;BME280;43358;50.356;12.456;2022-09-29T04:07:44;94160;;;4.8;98.8
56558;BME280;43358;50.356;12.456;2022-09-29T04:08:21;94157;;;4.9;98.8
56558;BME280;43358;50.356;12.456;2022-09-29T04:09:21;94157;;;4.9;98.8
56558;BME280;43358;50.356;12.456;2022-09-29T04:10:21;94159;;;4.9;98.8
56558;BME280;43358;50.356;12.456;2022-09-29T04:11:21;94162;;;5;98.8
56558;BME280;43358;50.356;12.456;2022-09-29T04:12:21;94159;;;5;98.8
56558;BME280;43358;50.356;12.456;2022-09-29T04:13:21;94159;;;5;98.8
56558;BME280;43358;50.356;12.456;2022-09-29T04:14:21;94161;;;5;98.8
56558;BME280;43358;50.356;12.456;2022-09-29T04:15:21;94162;;;4.9;98.8
56558;BME280;43358;50.356;12.456;2022-09-29T04:16:21;94166;;;4.9;98.8
56558;BME280;43358;50.356;12.456;2022-09-29T04:17:21;94165;;;4.9;98.8
56558;BME280;43358;50.356;12.456;2022-09-29T04:18:21;94165;;;4.9;98.8
56558;BME280;43358;50.356;12.456;2022-09-29T04:19:22;94165;;;4.9;98.8
56558;BME280;43358;50.356;12.456;2022-09-29T04:20:24;94165;;;4.9;98.8
56558;BME280;43358;50.356;12.456;2022-09-29T04:21:26;94168;;;5;98.8
56558;BME280;43358;50.356;12.456;2022-09-29T04:22:29;94167;;;4.9;98.8
56558;BME280;43358;50.356;12.456;2022-09-29T04:23:31;94170;;;4.9;98.8
56558;BME280;43358;50.356;12.456;2022-09-29T04:24:33;94170;;;4.9;98.8
56558;BME280;43358;50.356;12.456;2022-09-29T04:25:35;94170;;;4.9;98.8
56558;BME280;43358;50.356;12.456;2022-09-29T04:26:37;94168;;;4.9;98.8
56558;BME280;43358;50.356;12.456;2022-09-29T04:27:39;94167;;;4.9;98.8
56558;BME280;43358;50.356;12.456;2022-09-29T04:28:42;94168;;;4.9;98.8
56558;BME280;43358;50.356;12.456;2022-09-29T04:29:44;94167;;;4.8;98.8
56558;BME280;43358;50.356;12.456;2022-09-29T04:30:47;94167;;;4.8;98.8
56558;BME280;43358;50.356;12.456;2022-09-29T04:31:49;94169;;;4.8;98.8
56558;BME280;43358;50.356;12.456;2022-09-29T04:32:51;94166;;;4.8;98.8
56558;BME280;43358;50.356;12.456;2022-09-29T04:33:53;94168;;;4.8;98.8
56558;BME280;43358;50.356;12.456;2022-09-29T04:34:55;94168;;;4.8;98.8
56558;BME280;43358;50.356;12.456;2022-09-29T04:35:57;94170;;;4.8;98.8
56558;BME280;43358;50.356;12.456;2022-09-29T04:36:59;94167;;;4.8;98.8
56558;BME280;43358;50.356;12.456;2022-09-29T04:38:01;94169;;;4.8;98.8
56558;BME280;43358;50.356;12.456;2022-09-29T04:39:03;94169;;;4.8;98.8
56558;BME280;43358;50.356;12.456;2022-09-29T04:40:05;94167;;;4.8;98.8
56558;BME280;43358;50.356;12.456;2022-09-29T04:41:07;94168;;;4.8;98.8
56558;BME280;43358;50.356;12.456;2022-09-29T04:42:09;94168;;;4.8;98.8
56558;BME280;43358;50.356;12.456;2022-09-29T04:43:11;94167;;;4.8;98.8
56558;BME280;43358;50.356;12.456;2022-09-29T04:44:14;94168;;;4.7;98.8
56558;BME280;43358;50.356;12.456;2022-09-29T04:45:16;94168;;;4.8;98.8
56558;BME280;43358;50.356;12.456;2022-09-29T04:46:19;94169;;;4.8;98.8
56558;BME280;43358;50.356;12.456;2022-09-29T04:47:21;94170;;;4.7;98.8
56558;BME280;43358;50.356;12.456;2022-09-29T04:48:23;94172;;;4.7;98.8
56558;BME280;43358;50.356;12.456;2022-09-29T04:49:25;94172;;;4.7;98.8
56558;BME280;43358;50.356;12.456;2022-09-29T04:50:28;94171;;;4.8;98.8
56558;BME280;43358;50.356;12.456;2022-09-29T04:51:30;94170;;;4.8;98.8
56558;BME280;43358;50.356;12.456;2022-09-29T04:52:32;94172;;;4.8;98.8
56558;BME280;43358;50.356;12.456;2022-09-29T04:53:35;94172;;;4.8;98.8
56558;BME280;43358;50.356;12.456;2022-09-29T04:54:37;94172;;;4.8;98.8
56558;BME280;43358;50.356;12.456;2022-09-29T04:55:39;94172;;;4.8;98.8
56558;BME280;43358;50.356;12.456;2022-09-29T04:56:41;94170;;;4.7;98.8
56558;BME280;43358;50.356;12.456;2022-09-29T04:57:44;94172;;;4.7;98.8
56558;BME280;43358;50.356;12.456;2022-09-29T04:58:47;94168;;;4.7;98.8
56558;BME280;43358;50.356;12.456;2022-09-29T04:59:49;94168;;;4.7;98.8
56558;BME280;43358;50.356;12.456;2022-09-29T05:00:51;94165;;;4.7;98.8
56558;BME280;43358;50.356;12.456;2022-09-29T05:01:53;94167;;;4.7;98.8
56558;BME280;43358;50.356;12.456;2022-09-29T05:02:55;94167;;;4.7;98.8
56558;BME280;43358;50.356;12.456;2022-09-29T05:03:57;94168;;;4.7;98.8
56558;BME280;43358;50.356;12.456;2022-09-29T05:04:59;94167;;;4.7;98.8
56558;BME280;43358;50.356;12.456;2022-09-29T05:06:01;94170;;;4.7;98.8
56558;BME280;43358;50.356;12.456;2022-09-29T05:07:03;94171;;;4.7;98.8
56558;BME280;43358;50.356;12.456;2022-09-29T05:08:05;94171;;;4.7;98.8
56558;BME280;43358;50.356;12.456;2022-09-29T05:09:07;94174;;;4.7;98.8
56558;BME280;43358;50.356;12.456;2022-09-29T05:10:09;94173;;;4.7;98.8
56558;BME280;43358;50.356;12.456;2022-09-29T05:11:12;94173;;;4.7;98.8
56558;BME280;43358;50.356;12.456;2022-09-29T05:12:14;94173;;;4.7;98.8
56558;BME280;43358;50.356;12.456;2022-09-29T05:13:17;94177;;;4.7;98.8
56558;BME280;43358;50.356;12.456;2022-09-29T05:14:19;94180;;;4.8;98.8
56558;BME280;43358;50.356;12.456;2022-09-29T05:15:21;94180;;;4.8;98.8
56558;BME280;43358;50.356;12.456;2022-09-29T05:16:23;94186;;;4.8;98.8
56558;BME280;43358;50.356;12.456;2022-09-29T05:17:25;94187;;;4.8;98.8
56558;BME280;43358;50.356;12.456;2022-09-29T05:19:30;94188;;;5;98.8
56558;BME280;43358;50.356;12.456;2022-09-29T05:20:35;94190;;;5;98.8
56558;BME280;43358;50.356;12.456;2022-09-29T05:21:35;94190;;;5;98.8
56558;BME280;43358;50.356;12.456;2022-09-29T05:23:39;94188;;;5;98.8
56558;BME280;43358;50.356;12.456;2022-09-29T05:24:41;94186;;;5.1;98.8
56558;BME280;43358;50.356;12.456;2022-09-29T05:25:44;94184;;;5.1;98.8
56558;BME280;43358;50.356;12.456;2022-09-29T05:26:45;94186;;;5.1;98.8
56558;BME280;43358;50.356;12.456;2022-09-29T05:27:48;94184;;;5;98.8
56558;BME280;43358;50.356;12.456;2022-09-29T05:28:53;94184;;;5;98.8
56558;BME280;43358;50.356;12.456;2022-09-29T05:29:55;94186;;;5;98.8
56558;BME280;43358;50.356;12.456;2022-09-29T05:31:00;94183;;;5;98.8
56558;BME280;43358;50.356;12.456;2022-09-29T05:32:00;94183;;;4.9;98.8
56558;BME280;43358;50.356;12.456;2022-09-29T05:33:01;94182;;;4.9;98.8
56558;BME280;43358;50.356;12.456;2022-09-29T05:34:03;94182;;;4.9;98.8
56558;BME280;43358;50.356;12.456;2022-09-29T05:35:06;94182;;;4.9;98.8
56558;BME280;43358;50.356;12.456;2022-09-29T05:36:08;94183;;;4.9;98.8
56558;BME280;43358;50.356;12.456;2022-09-29T05:37:09;94181;;;4.9;98.8
56558;BME280;43358;50.356;12.456;2022-09-29T05:38:11;94182;;;4.9;98.8
56558;BME280;43358;50.356;12.456;2022-09-29T05:39:13;94181;;;4.9;98.8
56558;BME280;43358;50.356;12.456;2022-09-29T05:40:15;94183;;;5;98.8
56558;BME280;43358;50.356;12.456;2022-09-29T05:41:17;94181;;;4.9;98.8
56558;BME280;43358;50.356;12.456;2022-09-29T05:42:19;94181;;;4.9;98.8
56558;BME280;43358;50.356;12.456;2022-09-29T05:43:21;94183;;;4.9;98.8
56558;BME280;43358;50.356;12.456;2022-09-29T05:44:23;94184;;;4.9;98.8
56558;BME280;43358;50.356;12.456;2022-09-29T05:45:26;94188;;;4.8;98.8
56558;BME280;43358;50.356;12.456;2022-09-29T05:47:21;94191;;;4.8;98.8
56558;BME280;43358;50.356;12.456;2022-09-29T05:48:21;94187;;;4.9;98.8
56558;BME280;43358;50.356;12.456;2022-09-29T05:49:21;94188;;;4.9;98.8
56558;BME280;43358;50.356;12.456;2022-09-29T05:50:21;94186;;;4.9;98.8
56558;BME280;43358;50.356;12.456;2022-09-29T05:51:21;94187;;;4.9;98.8
56558;BME280;43358;50.356;12.456;2022-09-29T05:52:21;94187;;;4.9;98.8
56558;BME280;43358;50.356;12.456;2022-09-29T05:53:21;94185;;;5;98.8
56558;BME280;43358;50.356;12.456;2022-09-29T05:54:21;94186;;;5;98.8
56558;BME280;43358;50.356;12.456;2022-09-29T05:55:21;94187;;;5;98.8
56558;BME280;43358;50.356;12.456;2022-09-29T05:56:21;94183;;;5;98.8
56558;BME280;43358;50.356;12.456;2022-09-29T05:57:21;94185;;;5;98.8
56558;BME280;43358;50.356;12.456;2022-09-29T05:58:21;94181;;;5;98.8
56558;BME280;43358;50.356;12.456;2022-09-29T05:59:21;94183;;;5;98.8
56558;BME280;43358;50.356;12.456;2022-09-29T06:00:21;94182;;;5;98.8
56558;BME280;43358;50.356;12.456;2022-09-29T06:01:21;94187;;;5;98.8
56558;BME280;43358;50.356;12.456;2022-09-29T06:02:21;94188;;;5;98.8
56558;BME280;43358;50.356;12.456;2022-09-29T06:03:21;94187;;;5;98.8
56558;BME280;43358;50.356;12.456;2022-09-29T06:04:21;94186;;;5;98.8
56558;BME280;43358;50.356;12.456;2022-09-29T06:05:21;94186;;;5;98.8
56558;BME280;43358;50.356;12.456;2022-09-29T06:06:21;94189;;;5;98.8
56558;BME280;43358;50.356;12.456;2022-09-29T06:07:21;94186;;;4.9;98.8
56558;BME280;43358;50.356;12.456;2022-09-29T06:08:21;94190;;;4.9;98.8
56558;BME280;43358;50.356;12.456;2022-09-29T06:09:21;94189;;;4.9;98.8
56558;BME280;43358;50.356;12.456;2022-09-29T06:10:21;94189;;;5;98.8
56558;BME280;43358;50.356;12.456;2022-09-29T06:11:21;94186;;;5;98.8
56558;BME280;43358;50.356;12.456;2022-09-29T06:12:22;94187;;;5;98.8
56558;BME280;43358;50.356;12.456;2022-09-29T06:13:24;94189;;;5;98.8
56558;BME280;43358;50.356;12.456;2022-09-29T06:14:26;94189;;;5;98.8
56558;BME280;43358;50.356;12.456;2022-09-29T06:15:28;94189;;;5.1;98.8
56558;BME280;43358;50.356;12.456;2022-09-29T06:16:30;94192;;;5.1;98.8
56558;BME280;43358;50.356;12.456;2022-09-29T06:17:32;94190;;;5.1;98.8
56558;BME280;43358;50.356;12.456;2022-09-29T06:18:35;94189;;;5.1;98.8
56558;BME280;43358;50.356;12.456;2022-09-29T06:19:37;94187;;;5.1;98.8
56558;BME280;43358;50.356;12.456;2022-09-29T06:20:39;94188;;;5.1;98.8
56558;BME280;43358;50.356;12.456;2022-09-29T06:21:41;94184;;;5.1;98.8
56558;BME280;43358;50.356;12.456;2022-09-29T06:22:43;94186;;;5.2;98.8
56558;BME280;43358;50.356;12.456;2022-09-29T06:23:45;94188;;;5.2;98.8
56558;BME280;43358;50.356;12.456;2022-09-29T06:24:47;94189;;;5.2;98.8
56558;BME280;43358;50.356;12.456;2022-09-29T06:25:53;94193;;;5.2;98.8
56558;BME280;43358;50.356;12.456;2022-09-29T06:26:53;94193;;;5.2;98.8
56558;BME280;43358;50.356;12.456;2022-09-29T06:27:55;94192;;;5.2;98.8
56558;BME280;43358;50.356;12.456;2022-09-29T06:28:57;94195;;;5.2;98.8
56558;BME280;43358;50.356;12.456;2022-09-29T06:29:59;94190;;;5.2;98.8
56558;BME280;43358;50.356;12.456;2022-09-29T06:31:01;94193;;;5.2;98.8
56558;BME280;43358;50.356;12.456;2022-09-29T06:32:03;94192;;;5.3;98.8
56558;BME280;43358;50.356;12.456;2022-09-29T06:33:05;94194;;;5.3;98.8
56558;BME280;43358;50.356;12.456;2022-09-29T06:34:08;94191;;;5.3;98.8
56558;BME280;43358;50.356;12.456;2022-09-29T06:35:09;94195;;;5.3;98.8
56558;BME280;43358;50.356;12.456;2022-09-29T06:36:13;94196;;;5.3;98.8
56558;BME280;43358;50.356;12.456;2022-09-29T06:37:13;94194;;;5.3;98.8
56558;BME280;43358;50.356;12.456;2022-09-29T06:38:15;94194;;;5.4;98.8
56558;BME280;43358;50.356;12.456;2022-09-29T06:39:33;94194;;;5.4;98.8
56558;BME280;43358;50.356;12.456;2022-09-29T06:40:20;94193;;;5.4;98.8
56558;BME280;43358;50.356;12.456;2022-09-29T06:41:22;94190;;;5.4;98.8
56558;BME280;43358;50.356;12.456;2022-09-29T06:42:24;94191;;;5.4;98.8
56558;BME280;43358;50.356;12.456;2022-09-29T06:43:26;94192;;;5.5;98.8
56558;BME280;43358;50.356;12.456;2022-09-29T06:44:29;94193;;;5.5;98.8
56558;BME280;43358;50.356;12.456;2022-09-29T06:45:32;94192;;;5.5;98.8
56558;BME280;43358;50.356;12.456;2022-09-29T06:46:34;94196;;;5.5;98.8
56558;BME280;43358;50.356;12.456;2022-09-29T06:47:36;94195;;;5.5;98.8
56558;BME280;43358;50.356;12.456;2022-09-29T06:48:38;94195;;;5.5;98.8
56558;BME280;43358;50.356;12.456;2022-09-29T06:49:41;94194;;;5.6;98.8
56558;BME280;43358;50.356;12.456;2022-09-29T06:51:46;94195;;;5.6;98.8
56558;BME280;43358;50.356;12.456;2022-09-29T06:52:48;94193;;;5.7;98.8
56558;BME280;43358;50.356;12.456;2022-09-29T06:55:21;94193;;;5.7;98.8
56558;BME280;43358;50.356;12.456;2022-09-29T06:56:21;94195;;;5.7;98.8
56558;BME280;43358;50.356;12.456;2022-09-29T06:57:21;94193;;;5.8;98.8
56558;BME280;43358;50.356;12.456;2022-09-29T06:58:21;94193;;;5.8;98.8
56558;BME280;43358;50.356;12.456;2022-09-29T06:59:21;94193;;;5.8;98.8
56558;BME280;43358;50.356;12.456;2022-09-29T07:00:21;94197;;;5.8;98.8
56558;BME280;43358;50.356;12.456;2022-09-29T07:01:21;94195;;;5.8;98.8
56558;BME280;43358;50.356;12.456;2022-09-29T07:02:21;94193;;;5.8;98.8
56558;BME280;43358;50.356;12.456;2022-09-29T07:03:21;94196;;;5.8;98.8
56558;BME280;43358;50.356;12.456;2022-09-29T07:05:21;94197;;;5.8;98.8
56558;BME280;43358;50.356;12.456;2022-09-29T07:06:21;94195;;;5.8;98.8
56558;BME280;43358;50.356;12.456;2022-09-29T07:07:21;94193;;;5.8;98.8
56558;BME280;43358;50.356;12.456;2022-09-29T07:08:21;94196;;;5.8;98.8
56558;BME280;43358;50.356;12.456;2022-09-29T07:09:23;94194;;;5.9;98.8
56558;BME280;43358;50.356;12.456;2022-09-29T07:10:25;94195;;;5.9;98.8
56558;BME280;43358;50.356;12.456;2022-09-29T07:11:27;94194;;;6;98.8
56558;BME280;43358;50.356;12.456;2022-09-29T07:12:29;94197;;;6;98.8
56558;BME280;43358;50.356;12.456;2022-09-29T07:13:32;94194;;;6;98.8
56558;BME280;43358;50.356;12.456;2022-09-29T07:14:33;94196;;;6.1;98.8
56558;BME280;43358;50.356;12.456;2022-09-29T07:15:35;94194;;;6.1;98.8
56558;BME280;43358;50.356;12.456;2022-09-29T07:16:37;94194;;;6.1;98.8
56558;BME280;43358;50.356;12.456;2022-09-29T07:17:39;94197;;;6;98.8
56558;BME280;43358;50.356;12.456;2022-09-29T07:18:41;94200;;;6;98.8
56558;BME280;43358;50.356;12.456;2022-09-29T07:19:43;94198;;;6.1;98.8
56558;BME280;43358;50.356;12.456;2022-09-29T07:20:45;94197;;;6.1;98.8
56558;BME280;43358;50.356;12.456;2022-09-29T07:21:47;94198;;;6.1;98.8
56558;BME280;43358;50.356;12.456;2022-09-29T07:22:49;94196;;;6.1;98.8
56558;BME280;43358;50.356;12.456;2022-09-29T07:23:51;94198;;;6.1;98.8
56558;BME280;43358;50.356;12.456;2022-09-29T07:24:53;94199;;;6.1;98.8
56558;BME280;43358;50.356;12.456;2022-09-29T07:25:55;94197;;;6.2;98.8
56558;BME280;43358;50.356;12.456;2022-09-29T07:26:57;94198;;;6.2;98.8
56558;BME280;43358;50.356;12.456;2022-09-29T07:28:00;94200;;;6.2;98.8
56558;BME280;43358;50.356;12.456;2022-09-29T07:29:02;94201;;;6.3;98.8
56558;BME280;43358;50.356;12.456;2022-09-29T07:30:05;94207;;;6.3;98.8
56558;BME280;43358;50.356;12.456;2022-09-29T07:31:09;94205;;;6.3;98.8
56558;BME280;43358;50.356;12.456;2022-09-29T07:33:39;94209;;;6.4;98.8
56558;BME280;43358;50.356;12.456;2022-09-29T07:34:53;94207;;;6.4;98.8
56558;BME280;43358;50.356;12.456;2022-09-29T07:35:43;94209;;;6.4;98.8
56558;BME280;43358;50.356;12.456;2022-09-29T07:36:45;94210;;;6.5;98.8
56558;BME280;43358;50.356;12.456;2022-09-29T07:37:49;94212;;;6.5;98.8
56558;BME280;43358;50.356;12.456;2022-09-29T07:38:50;94216;;;6.5;98.8
56558;BME280;43358;50.356;12.456;2022-09-29T07:39:51;94217;;;6.5;98.8
56558;BME280;43358;50.356;12.456;2022-09-29T07:40:53;94218;;;6.5;98.8
56558;BME280;43358;50.356;12.456;2022-09-29T07:41:55;94218;;;6.6;98.8
56558;BME280;43358;50.356;12.456;2022-09-29T07:42:57;94215;;;6.6;98.8
56558;BME280;43358;50.356;12.456;2022-09-29T07:43:59;94218;;;6.6;98.8
56558;BME280;43358;50.356;12.456;2022-09-29T07:45:02;94215;;;6.6;98.8
56558;BME280;43358;50.356;12.456;2022-09-29T07:46:05;94216;;;6.7;98.8
56558;BME280;43358;50.356;12.456;2022-09-29T07:47:07;94216;;;6.7;98.8
56558;BME280;43358;50.356;12.456;2022-09-29T07:48:09;94215;;;6.7;98.8
56558;BME280;43358;50.356;12.456;2022-09-29T07:49:11;94216;;;6.7;98.8
56558;BME280;43358;50.356;12.456;2022-09-29T07:50:13;94220;;;6.7;98.8
56558;BME280;43358;50.356;12.456;2022-09-29T07:51:16;94219;;;6.7;98.8
56558;BME280;43358;50.356;12.456;2022-09-29T07:52:17;94221;;;6.7;98.8
56558;BME280;43358;50.356;12.456;2022-09-29T07:53:19;94219;;;6.8;98.8
56558;BME280;43358;50.356;12.456;2022-09-29T07:54:22;94221;;;6.8;98.8
56558;BME280;43358;50.356;12.456;2022-09-29T07:55:24;94222;;;6.8;98.8
56558;BME280;43358;50.356;12.456;2022-09-29T07:56:26;94219;;;6.9;98.8
56558;BME280;43358;50.356;12.456;2022-09-29T07:57:28;94220;;;6.9;98.8
56558;BME280;43358;50.356;12.456;2022-09-29T07:59:32;94223;;;6.9;98.8
56558;BME280;43358;50.356;12.456;2022-09-29T08:00:34;94224;;;7;98.8
56558;BME280;43358;50.356;12.456;2022-09-29T08:01:36;94224;;;7;98.8
56558;BME280;43358;50.356;12.456;2022-09-29T08:02:38;94226;;;7;98.8
56558;BME280;43358;50.356;12.456;2022-09-29T08:03:41;94227;;;7.1;98.8
56558;BME280;43358;50.356;12.456;2022-09-29T08:04:42;94229;;;7.1;98.8
56558;BME280;43358;50.356;12.456;2022-09-29T08:05:44;94229;;;7.1;98.8
56558;BME280;43358;50.356;12.456;2022-09-29T08:08:10;94233;;;7.2;98.8
56558;BME280;43358;50.356;12.456;2022-09-29T08:09:05;94233;;;7.2;98.8
56558;BME280;43358;50.356;12.456;2022-09-29T08:10:07;94233;;;7.3;98.8
56558;BME280;43358;50.356;12.456;2022-09-29T08:11:09;94231;;;7.3;98.8
56558;BME280;43358;50.356;12.456;2022-09-29T08:12:11;94232;;;7.3;98
56558;BME280;43358;50.356;12.456;2022-09-29T08:13:13;94232;;;7.4;97.7
56558;BME280;43358;50.356;12.456;2022-09-29T08:14:15;94231;;;7.3;98
56558;BME280;43358;50.356;12.456;2022-09-29T08:16:21;94233;;;7.4;98.2
56558;BME280;43358;50.356;12.456;2022-09-29T08:22:16;94244;;;7.4;98.6
56558;BME280;43358;50.356;12.456;2022-09-29T08:23:33;94241;;;7.4;98.6
56558;BME280;43358;50.356;12.456;2022-09-29T08:24:33;94245;;;7.4;98.8
56558;BME280;43358;50.356;12.456;2022-09-29T08:26:21;94246;;;7.5;98.8
56558;BME280;43358;50.356;12.456;2022-09-29T08:27:21;94242;;;7.5;98.7
56558;BME280;43358;50.356;12.456;2022-09-29T08:28:21;94246;;;7.6;98.1
56558;BME280;43358;50.356;12.456;2022-09-29T08:30:21;94244;;;7.6;97.9
56558;BME280;43358;50.356;12.456;2022-09-29T08:31:21;94243;;;7.7;97.4
56558;BME280;43358;50.356;12.456;2022-09-29T08:32:21;94246;;;7.7;97.6
56558;BME280;43358;50.356;12.456;2022-09-29T08:33:21;94245;;;7.7;97.8
56558;BME280;43358;50.356;12.456;2022-09-29T08:34:21;94246;;;7.7;97.9
56558;BME280;43358;50.356;12.456;2022-09-29T08:35:21;94247;;;7.7;97.4
56558;BME280;43358;50.356;12.456;2022-09-29T08:36:21;94247;;;7.7;97.4
56558;BME280;43358;50.356;12.456;2022-09-29T08:37:21;94249;;;7.7;97.9
56558;BME280;43358;50.356;12.456;2022-09-29T08:38:21;94247;;;7.7;98.4
56558;BME280;43358;50.356;12.456;2022-09-29T08:39:32;94247;;;7.8;97.8
56558;BME280;43358;50.356;12.456;2022-09-29T08:40:21;94248;;;7.8;97.5
56558;BME280;43358;50.356;12.456;2022-09-29T08:41:24;94248;;;7.8;97.2
56558;BME280;43358;50.356;12.456;2022-09-29T08:42:22;94249;;;7.9;96.4
56558;BME280;43358;50.356;12.456;2022-09-29T08:44:14;94252;;;7.9;96.6
56558;BME280;43358;50.356;12.456;2022-09-29T08:45:17;94248;;;8;96.8
56558;BME280;43358;50.356;12.456;2022-09-29T08:46:20;94252;;;8;97.1
56558;BME280;43358;50.356;12.456;2022-09-29T08:47:20;94252;;;8.1;97.1
56558;BME280;43358;50.356;12.456;2022-09-29T08:48:22;94252;;;8.2;97.6
56558;BME280;43358;50.356;12.456;2022-09-29T08:49:24;94253;;;8.3;97.8
56558;BME280;43358;50.356;12.456;2022-09-29T08:50:26;94255;;;8.4;97.4
56558;BME280;43358;50.356;12.456;2022-09-29T08:51:28;94254;;;8.5;97.4
56558;BME280;43358;50.356;12.456;2022-09-29T08:53:33;94254;;;8.6;97